createdAt,value
2018-05-06T02:44:55.372Z,17.27
2018-05-06T02:47:25.867Z,16.13
2018-05-06T02:49:55.655Z,14.90
2018-05-06T02:52:25.400Z,19.70
2018-05-06T02:54:55.212Z,19.93
2018-05-06T02:57:24.971Z,19.63
2018-05-06T02:59:55.030Z,19.00
2018-05-06T03:02:24.803Z,14.30
2018-05-06T03:04:56.104Z,18.98
2018-05-06T03:07:25.833Z,15.17
2018-05-06T03:09:56.386Z,14.73
2018-05-06T03:12:26.183Z,13.30
2018-05-06T03:14:56.767Z,19.90
2018-05-06T03:17:26.532Z,15.70
2018-05-06T03:19:56.264Z,12.83
2018-05-06T03:22:26.194Z,14.40
2018-05-06T03:24:55.999Z,14.07
2018-05-06T03:27:25.770Z,14.80
2018-05-06T03:29:55.758Z,13.65
2018-05-06T03:32:26.782Z,15.33
2018-05-06T03:34:56.562Z,14.87
2018-05-06T03:37:26.347Z,17.75
2018-05-06T03:39:56.629Z,14.20
2018-05-06T03:42:27.529Z,14.57
2018-05-06T03:44:57.252Z,21.63
2018-05-06T03:47:27.952Z,16.23
2018-05-06T03:49:58.451Z,14.33
2018-05-06T03:52:28.213Z,13.10
2018-05-06T03:54:58.808Z,15.02
2018-05-06T03:57:40.383Z,22.58
2018-05-06T04:00:21.428Z,14.77
2018-05-06T04:02:51.212Z,16.30
2018-05-06T04:05:21.004Z,17.03
2018-05-06T04:07:51.555Z,17.97
2018-05-06T04:10:22.247Z,17.27
2018-05-06T04:12:52.004Z,20.92
2018-05-06T04:15:22.240Z,20.07
2018-05-06T04:17:51.984Z,23.57
2018-05-06T04:20:22.380Z,17.90
2018-05-06T04:22:52.170Z,24.47
2018-05-06T04:25:23.063Z,18.83
2018-05-06T04:27:52.819Z,19.07
2018-05-06T04:30:22.748Z,18.37
2018-05-06T04:32:52.498Z,15.87
2018-05-06T04:35:22.328Z,19.07
2018-05-06T04:37:52.849Z,18.77
2018-05-06T04:40:24.326Z,18.50
2018-05-06T04:42:55.010Z,19.70
2018-05-06T04:45:24.774Z,19.50
2018-05-06T04:47:55.265Z,16.17
2018-05-06T04:50:25.031Z,16.30
2018-05-06T04:52:54.807Z,15.07
2018-05-06T04:55:25.524Z,17.30
2018-05-06T04:57:56.053Z,18.80
2018-05-06T05:00:25.810Z,15.03
2018-05-06T05:02:55.628Z,14.40
2018-05-06T05:05:25.340Z,15.47
2018-05-06T05:07:55.084Z,13.50
2018-05-06T05:10:25.977Z,14.10
2018-05-06T05:12:55.778Z,13.60
2018-05-06T05:15:26.639Z,13.87
2018-05-06T05:17:56.407Z,12.10
2018-05-06T05:20:27.132Z,12.63
2018-05-06T05:22:57.648Z,14.27
2018-05-06T05:25:28.267Z,12.77
2018-05-06T05:27:58.068Z,12.20
2018-05-06T05:30:27.824Z,12.87
2018-05-06T05:32:58.343Z,11.67
2018-05-06T05:35:28.142Z,13.40
2018-05-06T05:37:57.896Z,12.33
2018-05-06T05:40:27.640Z,13.48
2018-05-06T05:42:58.248Z,13.63
2018-05-06T05:45:28.178Z,13.57
2018-05-06T05:47:58.383Z,12.90
2018-05-06T05:50:29.255Z,14.27
2018-05-06T05:52:59.617Z,16.13
2018-05-06T05:55:31.051Z,12.70
2018-05-06T05:58:01.591Z,13.53
2018-05-06T06:00:32.091Z,11.70
2018-05-06T06:03:01.835Z,14.50
2018-05-06T06:05:32.356Z,14.33
2018-05-06T06:08:03.046Z,17.23
2018-05-06T06:10:32.811Z,17.50
2018-05-06T06:13:02.562Z,14.13
2018-05-06T06:15:32.331Z,13.27
2018-05-06T06:18:02.098Z,13.13
2018-05-06T06:20:32.687Z,14.80
2018-05-06T06:23:03.236Z,15.33
2018-05-06T06:25:33.015Z,14.23
2018-05-06T06:28:03.527Z,14.90
2018-05-06T06:30:34.752Z,13.85
2018-05-06T06:33:05.459Z,19.07
2018-05-06T06:35:36.428Z,16.12
2018-05-06T06:38:06.261Z,15.10
2018-05-06T06:40:36.784Z,19.45
2018-05-06T06:43:07.295Z,13.10
2018-05-06T06:45:37.066Z,13.20
2018-05-06T06:48:06.860Z,13.97
2018-05-06T06:50:37.411Z,20.10
2018-05-06T06:53:07.183Z,17.17
2018-05-06T06:55:37.865Z,13.52
2018-05-06T06:58:08.408Z,13.90
2018-05-06T07:00:39.184Z,13.70
2018-05-06T07:03:09.706Z,14.90
2018-05-06T07:05:40.258Z,13.93
2018-05-06T07:08:10.013Z,15.57
2018-05-06T07:10:39.763Z,15.30
2018-05-06T07:13:10.285Z,14.47
2018-05-06T07:15:40.795Z,10.30
2018-05-06T07:18:10.563Z,13.73
2018-05-06T07:20:40.306Z,12.55
2018-05-06T07:23:10.088Z,12.73
2018-05-06T07:25:39.835Z,13.23
2018-05-06T07:28:09.603Z,12.50
2018-05-06T07:30:39.406Z,13.27
2018-05-06T07:33:09.177Z,13.30
2018-05-06T07:35:39.145Z,13.80
2018-05-06T07:38:09.906Z,13.20
2018-05-06T07:40:39.652Z,12.45
2018-05-06T07:43:10.169Z,15.13
2018-05-06T07:45:40.728Z,11.57
2018-05-06T07:48:10.492Z,11.30
2018-05-06T07:50:40.248Z,13.40
2018-05-06T07:53:09.969Z,11.27
2018-05-06T07:55:39.808Z,12.10
2018-05-06T07:58:09.937Z,12.03
2018-05-06T08:00:39.690Z,11.52
2018-05-06T08:03:11.115Z,10.90
2018-05-06T08:05:40.874Z,11.73
2018-05-06T08:08:10.635Z,13.20
2018-05-06T08:10:40.493Z,12.77
2018-05-06T08:13:11.469Z,13.15
2018-05-06T08:15:41.465Z,11.03
2018-05-06T08:18:11.240Z,12.57
2018-05-06T08:20:41.870Z,11.82
2018-05-06T08:23:12.360Z,11.83
2018-05-06T08:25:42.139Z,12.70
2018-05-06T08:28:11.871Z,14.30
2018-05-06T08:30:41.648Z,13.67
2018-05-06T08:33:12.390Z,12.77
2018-05-06T08:35:42.108Z,10.60
2018-05-06T08:38:12.811Z,13.10
2018-05-06T08:40:43.314Z,13.37
2018-05-06T08:43:13.045Z,13.67
2018-05-06T08:45:43.613Z,12.63
2018-05-06T08:48:13.359Z,14.33
2018-05-06T08:50:43.324Z,13.55
2018-05-06T08:53:13.079Z,14.80
2018-05-06T08:55:43.808Z,13.20
2018-05-06T08:58:13.566Z,14.23
2018-05-06T09:00:44.059Z,13.80
2018-05-06T09:03:14.773Z,15.60
2018-05-06T09:05:44.579Z,14.55
2018-05-06T09:08:14.318Z,13.70
2018-05-06T09:10:44.234Z,13.73
2018-05-06T09:13:14.066Z,14.97
2018-05-06T09:15:45.012Z,14.18
2018-05-06T09:18:15.559Z,15.30
2018-05-06T09:20:46.546Z,13.57
2018-05-06T09:23:17.141Z,15.53
2018-05-06T09:25:46.887Z,15.33
2018-05-06T09:28:16.630Z,15.60
2018-05-06T09:30:48.280Z,13.40
2018-05-06T09:33:19.629Z,13.77
2018-05-06T09:35:50.174Z,15.60
2018-05-06T09:38:20.002Z,15.80
2018-05-06T09:40:51.088Z,14.57
2018-05-06T09:43:20.860Z,15.32
2018-05-06T09:45:50.700Z,16.53
2018-05-06T09:48:20.441Z,14.73
2018-05-06T09:50:51.011Z,15.60
2018-05-06T09:53:20.768Z,15.90
2018-05-06T09:55:50.516Z,16.90
2018-05-06T09:58:20.279Z,16.00
2018-05-06T10:00:50.084Z,16.10
2018-05-06T10:03:19.857Z,16.20
2018-05-06T10:05:50.371Z,15.97
2018-05-06T10:08:20.295Z,15.50
2018-05-06T10:10:51.083Z,14.50
2018-05-06T10:13:20.960Z,12.33
2018-05-06T10:15:50.743Z,17.83
2018-05-06T10:18:21.354Z,16.30
2018-05-06T10:20:52.104Z,16.50
2018-05-06T10:23:22.663Z,16.40
2018-05-06T10:25:52.447Z,18.80
2018-05-06T10:28:22.944Z,18.37
2018-05-06T10:30:52.844Z,20.40
2018-05-06T10:33:22.568Z,20.07
2018-05-06T10:35:52.326Z,23.23
2018-05-06T10:38:22.401Z,31.20
2018-05-06T10:40:53.803Z,31.87
2018-05-06T10:43:23.524Z,27.47
2018-05-06T10:45:53.335Z,28.77
2018-05-06T10:48:23.138Z,33.67
2018-05-06T10:50:52.856Z,42.90
2018-05-06T10:53:23.520Z,27.63
2018-05-06T10:55:53.290Z,31.27
2018-05-06T10:58:23.047Z,39.80
2018-05-06T11:00:53.425Z,38.67
2018-05-06T11:03:23.158Z,36.20
2018-05-06T11:05:52.953Z,34.77
2018-05-06T11:08:23.012Z,21.27
2018-05-06T11:10:52.783Z,22.20
2018-05-06T11:13:22.539Z,19.50
2018-05-06T11:15:52.307Z,26.50
2018-05-06T11:18:22.106Z,34.77
2018-05-06T11:20:51.919Z,27.20
2018-05-06T11:23:21.717Z,33.70
2018-05-06T11:25:51.457Z,24.70
2018-05-06T11:28:21.250Z,16.60
2018-05-06T11:30:51.932Z,17.77
2018-05-06T11:33:21.744Z,16.90
2018-05-06T11:35:51.532Z,19.87
2018-05-06T11:38:21.360Z,23.13
2018-05-06T11:40:51.443Z,19.80
2018-05-06T11:43:22.412Z,20.85
2018-05-06T11:45:52.164Z,20.03
2018-05-06T11:48:22.696Z,20.73
2018-05-06T11:50:53.236Z,18.17
2018-05-06T11:53:24.670Z,18.87
2018-05-06T11:55:55.232Z,17.83
2018-05-06T11:58:25.474Z,20.30
2018-05-06T12:00:55.320Z,17.03
2018-05-06T12:03:26.402Z,18.70
2018-05-06T12:05:56.185Z,20.63
2018-05-06T12:08:26.742Z,36.73
2018-05-06T12:10:56.489Z,18.13
2018-05-06T12:13:26.255Z,19.03
2018-05-06T12:15:56.106Z,23.07
2018-05-06T12:18:25.906Z,19.10
2018-05-06T12:20:55.721Z,18.30
2018-05-06T12:23:26.513Z,18.77
2018-05-06T12:29:27.528Z,19.57
2018-05-06T12:31:57.276Z,19.07
2018-05-06T12:34:27.857Z,20.60
2018-05-06T12:36:58.468Z,18.63
2018-05-06T12:39:28.255Z,29.17
2018-05-06T12:41:58.323Z,17.97
2018-05-06T12:44:28.074Z,18.40
2018-05-06T12:46:58.838Z,20.00
2018-05-06T12:49:30.596Z,20.10
2018-05-06T12:52:00.355Z,20.90
2018-05-06T12:54:30.152Z,20.02
2018-05-06T12:56:59.950Z,19.47
2018-05-06T12:59:29.757Z,17.97
2018-05-06T13:01:59.565Z,18.70
2018-05-06T13:04:29.368Z,18.40
2018-05-06T13:06:59.171Z,17.17
2018-05-06T13:09:28.959Z,17.30
2018-05-06T13:12:00.560Z,18.23
2018-05-06T13:14:30.308Z,17.48
2018-05-06T13:17:00.090Z,20.40
2018-05-06T13:19:29.930Z,18.33
2018-05-06T13:21:59.740Z,19.00
2018-05-06T13:24:29.477Z,20.90
2018-05-06T13:27:00.111Z,20.57
2018-05-06T13:29:30.710Z,20.50
2018-05-06T13:32:00.600Z,23.50
2018-05-06T13:34:30.950Z,27.58
2018-05-06T13:37:00.720Z,22.37
2018-05-06T13:39:30.498Z,19.20
2018-05-06T13:42:01.019Z,22.93
2018-05-06T13:44:32.891Z,22.40
2018-05-06T13:47:03.642Z,19.60
2018-05-06T13:49:33.446Z,27.45
2018-05-06T13:52:03.233Z,24.83
2018-05-06T13:54:33.041Z,22.92
2018-05-06T13:57:02.967Z,23.43
2018-05-06T13:59:33.505Z,19.80
2018-05-06T14:02:03.998Z,23.63
2018-05-06T14:04:33.749Z,34.83
2018-05-06T14:07:04.260Z,25.63
2018-05-06T14:09:35.738Z,21.17
2018-05-06T14:12:05.555Z,19.93
2018-05-06T14:14:35.312Z,22.27
2018-05-06T14:17:05.076Z,26.33
2018-05-06T14:19:34.849Z,20.80
2018-05-06T14:22:04.603Z,19.90
2018-05-06T14:24:34.390Z,19.37
2018-05-06T14:27:04.958Z,20.20
2018-05-06T14:29:34.778Z,19.35
2018-05-06T14:32:04.603Z,19.67
2018-05-06T14:34:34.401Z,21.37
2018-05-06T14:37:04.222Z,20.47
2018-05-06T14:39:34.135Z,19.45
2018-05-06T14:42:03.901Z,24.33
2018-05-06T14:44:34.436Z,21.30
2018-05-06T14:47:15.504Z,18.00
2018-05-06T14:49:46.036Z,20.20
2018-05-06T14:52:16.553Z,18.83
2018-05-06T14:54:47.118Z,25.12
2018-05-06T14:57:16.879Z,20.30
2018-05-06T14:59:46.875Z,25.37
2018-05-06T15:02:16.681Z,19.80
2018-05-06T15:04:46.457Z,20.77
2018-05-06T15:07:16.394Z,30.03
2018-05-06T15:09:46.173Z,20.07
2018-05-06T15:12:16.984Z,19.43
2018-05-06T15:14:46.755Z,25.20
2018-05-06T15:17:16.560Z,19.10
2018-05-06T15:19:47.383Z,19.47
2018-05-06T15:22:17.108Z,22.23
2018-05-06T15:24:48.412Z,32.20
2018-05-06T15:27:18.983Z,57.67
2018-05-06T15:29:48.736Z,21.60
2018-05-06T15:32:19.293Z,21.70
2018-05-06T15:34:49.807Z,23.37
2018-05-06T15:37:20.326Z,22.90
2018-05-06T15:39:50.150Z,24.20
2018-05-06T15:42:20.782Z,20.87
2018-05-06T15:44:51.360Z,20.45
2018-05-06T15:47:21.158Z,20.63
2018-05-06T15:49:51.759Z,19.77
2018-05-06T15:52:22.391Z,20.07
2018-05-06T15:54:52.916Z,20.43
2018-05-06T15:57:23.480Z,20.60
2018-05-06T15:59:53.269Z,22.90
2018-05-06T16:05:15.626Z,26.13
2018-05-06T16:07:46.221Z,28.50
2018-05-06T16:10:16.071Z,19.13
2018-05-06T16:12:45.883Z,22.83
2018-05-06T16:15:17.079Z,19.20
2018-05-06T16:17:47.002Z,20.02
2018-05-06T16:20:16.876Z,27.37
2018-05-06T16:22:46.633Z,19.67
2018-05-06T16:25:18.184Z,18.60
2018-05-06T16:27:47.989Z,23.97
2018-05-06T16:30:17.763Z,31.13
2018-05-06T16:32:47.486Z,21.53
2018-05-06T16:35:17.236Z,18.77
2018-05-06T16:37:47.201Z,26.70
2018-05-06T16:40:17.521Z,20.30
2018-05-06T16:42:47.632Z,21.60
2018-05-06T16:45:18.658Z,25.77
2018-05-06T16:47:49.293Z,20.42
2018-05-06T16:50:19.094Z,20.23
2018-05-06T16:52:49.661Z,25.43
2018-05-06T16:55:19.431Z,21.77
2018-05-06T16:57:49.988Z,23.60
2018-05-06T17:00:19.803Z,19.83
2018-05-06T17:02:49.566Z,31.85
2018-05-06T17:05:19.370Z,21.53
2018-05-06T17:07:50.136Z,32.73
2018-05-06T17:10:20.827Z,24.53
2018-05-06T17:12:50.694Z,21.23
2018-05-06T17:15:20.455Z,27.43
2018-05-06T17:17:50.262Z,19.30
2018-05-06T17:20:20.062Z,19.17
2018-05-06T17:22:49.838Z,20.87
2018-05-06T17:25:20.610Z,19.23
2018-05-06T17:27:50.597Z,20.43
2018-05-06T17:30:21.000Z,21.07
2018-05-06T17:32:51.508Z,24.93
2018-05-06T17:35:21.297Z,21.40
2018-05-06T17:37:51.075Z,27.77
2018-05-06T17:40:20.886Z,21.00
2018-05-06T17:42:50.669Z,22.53
2018-05-06T17:45:21.452Z,25.70
2018-05-06T17:47:51.250Z,24.63
2018-05-06T17:50:21.063Z,25.27
2018-05-06T17:52:51.798Z,20.90
2018-05-06T17:55:21.600Z,20.80
2018-05-06T17:57:51.366Z,20.37
2018-05-06T18:00:21.882Z,22.15
2018-05-06T18:02:51.689Z,25.63
2018-05-06T18:05:22.386Z,19.73
2018-05-06T18:07:52.293Z,21.27
2018-05-06T18:10:22.157Z,21.80
2018-05-06T18:12:53.054Z,24.70
2018-05-06T18:15:22.862Z,22.47
2018-05-06T18:17:53.764Z,21.23
2018-05-06T18:20:23.516Z,22.10
2018-05-06T18:22:53.401Z,23.00
2018-05-06T18:25:23.933Z,27.40
2018-05-06T18:27:54.466Z,21.47
2018-05-06T18:30:25.995Z,23.70
2018-05-06T18:32:55.777Z,20.60
2018-05-06T18:35:25.562Z,23.23
2018-05-06T18:37:55.323Z,22.40
2018-05-06T18:40:25.222Z,27.33
2018-05-06T18:42:55.199Z,23.57
2018-05-06T18:45:24.969Z,25.40
2018-05-06T18:47:54.739Z,28.67
2018-05-06T18:50:24.489Z,39.73
2018-05-06T18:52:55.000Z,25.60
2018-05-06T18:55:24.805Z,26.23
2018-05-06T18:57:54.638Z,26.43
2018-05-06T19:00:25.726Z,33.90
2018-05-06T19:02:55.516Z,25.80
2018-05-06T19:05:25.334Z,26.90
2018-05-06T19:07:56.086Z,26.90
2018-05-06T19:10:26.716Z,24.77
2018-05-06T19:12:56.491Z,39.33
2018-05-06T19:15:27.952Z,29.07
2018-05-06T19:17:58.528Z,25.30
2018-05-06T19:20:28.297Z,24.90
2018-05-06T19:22:58.826Z,27.80
2018-05-06T19:25:29.354Z,23.87
2018-05-06T19:27:59.906Z,32.33
2018-05-06T19:30:29.732Z,24.60
2018-05-06T19:32:59.572Z,28.57
2018-05-06T19:35:29.687Z,27.70
2018-05-06T19:37:59.454Z,30.60
2018-05-06T19:40:29.230Z,24.90
2018-05-06T19:42:58.990Z,28.60
2018-05-06T19:45:30.043Z,29.53
2018-05-06T19:47:59.814Z,26.07
2018-05-06T19:50:30.346Z,38.03
2018-05-06T19:53:00.917Z,27.60
2018-05-06T19:55:30.726Z,30.17
2018-05-06T19:58:00.494Z,29.80
2018-05-06T20:00:31.060Z,29.07
2018-05-06T20:03:01.712Z,26.47
2018-05-06T20:05:31.476Z,33.97
2018-05-06T20:08:02.084Z,36.23
2018-05-06T20:10:32.654Z,31.67
2018-05-06T20:13:02.474Z,27.10
2018-05-06T20:15:32.254Z,29.03
2018-05-06T20:18:02.800Z,30.00
2018-05-06T20:20:32.634Z,34.13
2018-05-06T20:23:02.557Z,29.67
2018-05-06T20:25:32.386Z,35.53
2018-05-06T20:28:02.152Z,32.17
2018-05-06T20:30:31.953Z,34.43
2018-05-06T20:33:01.738Z,32.00
2018-05-06T20:35:31.510Z,33.67
2018-05-06T20:38:01.251Z,32.53
2018-05-06T20:40:31.027Z,32.00
2018-05-06T20:43:00.796Z,26.53
2018-05-06T20:45:31.308Z,27.37
2018-05-06T20:48:01.142Z,26.77
2018-05-06T20:50:31.690Z,32.30
2018-05-06T20:53:01.436Z,29.87
2018-05-06T20:55:31.245Z,26.40
2018-05-06T20:58:01.018Z,33.60
2018-05-06T21:00:31.073Z,35.23
2018-05-06T21:03:01.936Z,29.60
2018-05-06T21:05:31.685Z,36.20
2018-05-06T21:08:01.461Z,31.87
2018-05-06T21:10:31.485Z,28.23
2018-05-06T21:13:01.542Z,31.02
2018-05-06T21:15:31.682Z,31.00
2018-05-06T21:18:02.721Z,26.12
2018-05-06T21:20:33.284Z,30.40
2018-05-06T21:23:03.059Z,26.85
2018-05-06T21:25:32.864Z,30.27
2018-05-06T21:28:02.669Z,28.53
2018-05-06T21:30:32.558Z,31.13
2018-05-06T21:33:03.279Z,31.08
2018-05-06T21:35:33.785Z,26.13
2018-05-06T21:38:03.524Z,26.73
2018-05-06T21:40:34.290Z,30.15
2018-05-06T21:43:04.082Z,33.33
2018-05-06T21:45:34.693Z,32.77
2018-05-06T21:48:05.229Z,29.80
2018-05-06T21:50:35.781Z,32.20
2018-05-06T21:53:05.647Z,32.83
2018-05-06T21:55:35.515Z,24.53
2018-05-06T21:58:05.290Z,29.10
2018-05-06T22:00:35.854Z,31.65
2018-05-06T22:03:05.747Z,34.03
2018-05-06T22:05:36.284Z,26.70
2018-05-06T22:08:07.046Z,25.97
2018-05-06T22:10:37.850Z,24.67
2018-05-06T22:13:08.530Z,28.03
2018-05-06T22:15:38.634Z,28.80
2018-05-06T22:18:08.394Z,31.07
2018-05-06T22:20:38.226Z,27.65
2018-05-06T22:23:07.987Z,25.87
2018-05-06T22:25:37.766Z,32.57
2018-05-06T22:28:08.399Z,32.35
2018-05-06T22:30:38.283Z,28.45
2018-05-06T22:33:09.746Z,28.63
2018-05-06T22:35:39.696Z,33.30
2018-05-06T22:38:09.505Z,26.73
2018-05-06T22:40:39.279Z,30.55
2018-05-06T22:43:09.038Z,28.97
2018-05-06T22:45:38.899Z,27.00
2018-05-06T22:48:09.399Z,28.70
2018-05-06T22:50:39.184Z,26.53
2018-05-06T22:53:08.991Z,35.90
2018-05-06T22:55:38.718Z,26.47
2018-05-06T22:58:08.500Z,29.07
2018-05-06T23:00:38.329Z,33.33
2018-05-06T23:03:08.131Z,29.80
2018-05-06T23:05:37.973Z,27.97
2018-05-06T23:08:08.692Z,33.33
2018-05-06T23:10:38.477Z,29.53
2018-05-06T23:13:08.237Z,33.03
2018-05-06T23:15:39.122Z,28.93
2018-05-06T23:18:08.907Z,27.77
2018-05-06T23:20:39.899Z,36.05
2018-05-06T23:23:09.645Z,27.53
2018-05-06T23:25:39.409Z,30.07
2018-05-06T23:28:09.172Z,29.30
2018-05-06T23:30:39.717Z,27.93
2018-05-06T23:33:10.216Z,30.67
2018-05-06T23:35:40.100Z,29.90
2018-05-06T23:38:09.911Z,31.23
2018-05-06T23:40:39.649Z,33.35
2018-05-06T23:43:09.562Z,28.47
2018-05-06T23:45:39.627Z,29.60
2018-05-06T23:48:09.737Z,29.58
2018-05-06T23:50:40.817Z,28.37
2018-05-06T23:53:10.604Z,37.10
2018-05-06T23:55:40.402Z,27.48
2018-05-06T23:58:10.247Z,31.27
